sensor_id;sensor_type;location;lat;lon;timestamp;temperature;humidity
27376;DHT22;14844;51.302;6.354;2023-05-10T00:02:21;12.70;99.90
27376;DHT22;14844;51.302;6.354;2023-05-10T00:04:47;12.70;99.90
27376;DHT22;14844;51.302;6.354;2023-05-10T00:07:12;12.70;99.90
27376;DHT22;14844;51.302;6.354;2023-05-10T00:09:38;12.60;99.90
27376;DHT22;14844;51.302;6.354;2023-05-10T00:12:03;12.70;99.90
27376;DHT22;14844;51.302;6.354;2023-05-10T00:14:29;12.70;99.90
27376;DHT22;14844;51.302;6.354;2023-05-10T00:16:55;12.60;99.90
27376;DHT22;14844;51.302;6.354;2023-05-10T00:19:20;12.70;99.90
27376;DHT22;14844;51.302;6.354;2023-05-10T00:21:46;12.70;99.90
27376;DHT22;14844;51.302;6.354;2023-05-10T00:24:11;12.70;99.90
27376;DHT22;14844;51.302;6.354;2023-05-10T00:26:37;12.70;99.90
27376;DHT22;14844;51.302;6.354;2023-05-10T00:29:02;12.60;99.90
27376;DHT22;14844;51.302;6.354;2023-05-10T00:31:28;12.60;99.90
27376;DHT22;14844;51.302;6.354;2023-05-10T00:33:54;12.60;99.90
27376;DHT22;14844;51.302;6.354;2023-05-10T00:36:19;12.60;99.90
27376;DHT22;14844;51.302;6.354;2023-05-10T00:38:46;12.60;99.90
27376;DHT22;14844;51.302;6.354;2023-05-10T00:41:11;12.60;99.90
27376;DHT22;14844;51.302;6.354;2023-05-10T00:43:36;12.60;99.90
27376;DHT22;14844;51.302;6.354;2023-05-10T00:46:02;12.60;99.90
27376;DHT22;14844;51.302;6.354;2023-05-10T00:48:28;12.50;99.90
27376;DHT22;14844;51.302;6.354;2023-05-10T00:50:54;12.50;99.90
27376;DHT22;14844;51.302;6.354;2023-05-10T00:53:19;12.50;99.90
27376;DHT22;14844;51.302;6.354;2023-05-10T00:55:45;12.50;99.90
27376;DHT22;14844;51.302;6.354;2023-05-10T00:58:10;12.50;99.90
27376;DHT22;14844;51.302;6.354;2023-05-10T01:00:36;12.50;99.90
27376;DHT22;14844;51.302;6.354;2023-05-10T01:03:03;12.50;99.90
27376;DHT22;14844;51.302;6.354;2023-05-10T01:05:29;12.50;99.90
27376;DHT22;14844;51.302;6.354;2023-05-10T01:07:55;12.50;99.90
27376;DHT22;14844;51.302;6.354;2023-05-10T01:10:21;12.50;99.90
27376;DHT22;14844;51.302;6.354;2023-05-10T01:12:47;12.50;99.90
27376;DHT22;14844;51.302;6.354;2023-05-10T01:15:12;12.50;99.90
27376;DHT22;14844;51.302;6.354;2023-05-10T01:17:39;12.50;99.90
27376;DHT22;14844;51.302;6.354;2023-05-10T01:20:06;12.50;99.90
27376;DHT22;14844;51.302;6.354;2023-05-10T01:25:15;12.40;99.90
27376;DHT22;14844;51.302;6.354;2023-05-10T01:27:53;12.40;99.90
27376;DHT22;14844;51.302;6.354;2023-05-10T01:43:18;12.40;99.90
27376;DHT22;14844;51.302;6.354;2023-05-10T01:48:22;12.30;99.90
27376;DHT22;14844;51.302;6.354;2023-05-10T01:50:48;12.20;99.90
27376;DHT22;14844;51.302;6.354;2023-05-10T01:53:17;12.20;99.90
27376;DHT22;14844;51.302;6.354;2023-05-10T01:55:50;12.20;99.90
27376;DHT22;14844;51.302;6.354;2023-05-10T01:58:39;12.20;99.90
27376;DHT22;14844;51.302;6.354;2023-05-10T02:01:03;12.30;99.90
27376;DHT22;14844;51.302;6.354;2023-05-10T02:03:29;12.30;99.90
27376;DHT22;14844;51.302;6.354;2023-05-10T02:05:56;12.40;99.90
27376;DHT22;14844;51.302;6.354;2023-05-10T02:08:22;12.40;99.90
27376;DHT22;14844;51.302;6.354;2023-05-10T02:10:49;12.40;99.90
27376;DHT22;14844;51.302;6.354;2023-05-10T02:13:15;12.40;99.90
27376;DHT22;14844;51.302;6.354;2023-05-10T02:15:42;12.50;99.90
27376;DHT22;14844;51.302;6.354;2023-05-10T02:18:08;12.50;99.90
27376;DHT22;14844;51.302;6.354;2023-05-10T02:20:34;12.50;99.90
27376;DHT22;14844;51.302;6.354;2023-05-10T02:23:00;12.40;99.90
27376;DHT22;14844;51.302;6.354;2023-05-10T02:25:26;12.40;99.90
27376;DHT22;14844;51.302;6.354;2023-05-10T02:27:54;12.40;99.90
27376;DHT22;14844;51.302;6.354;2023-05-10T02:30:20;12.40;99.90
27376;DHT22;14844;51.302;6.354;2023-05-10T02:32:46;12.40;99.90
27376;DHT22;14844;51.302;6.354;2023-05-10T02:35:13;12.40;99.90
27376;DHT22;14844;51.302;6.354;2023-05-10T02:37:39;12.30;99.90
27376;DHT22;14844;51.302;6.354;2023-05-10T02:40:05;12.30;99.90
27376;DHT22;14844;51.302;6.354;2023-05-10T02:42:32;12.30;99.90
27376;DHT22;14844;51.302;6.354;2023-05-10T02:45:01;12.20;99.90
27376;DHT22;14844;51.302;6.354;2023-05-10T02:47:30;12.20;99.90
27376;DHT22;14844;51.302;6.354;2023-05-10T02:49:56;12.20;99.90
27376;DHT22;14844;51.302;6.354;2023-05-10T02:52:24;12.20;99.90
27376;DHT22;14844;51.302;6.354;2023-05-10T02:54:52;12.20;99.90
27376;DHT22;14844;51.302;6.354;2023-05-10T02:57:19;12.30;99.90
27376;DHT22;14844;51.302;6.354;2023-05-10T02:59:47;12.40;99.90
27376;DHT22;14844;51.302;6.354;2023-05-10T03:02:12;12.50;99.90
27376;DHT22;14844;51.302;6.354;2023-05-10T03:04:38;12.50;99.90
27376;DHT22;14844;51.302;6.354;2023-05-10T03:07:04;12.50;99.90
27376;DHT22;14844;51.302;6.354;2023-05-10T03:09:30;12.60;99.90
27376;DHT22;14844;51.302;6.354;2023-05-10T03:12:12;12.60;99.90
27376;DHT22;14844;51.302;6.354;2023-05-10T03:14:45;12.60;99.90
27376;DHT22;14844;51.302;6.354;2023-05-10T03:17:25;12.50;99.90
27376;DHT22;14844;51.302;6.354;2023-05-10T03:19:58;12.50;99.90
27376;DHT22;14844;51.302;6.354;2023-05-10T03:25:22;12.60;99.90
27376;DHT22;14844;51.302;6.354;2023-05-10T03:27:48;12.60;99.90
27376;DHT22;14844;51.302;6.354;2023-05-10T03:30:13;12.60;99.90
27376;DHT22;14844;51.302;6.354;2023-05-10T03:32:39;12.60;99.90
27376;DHT22;14844;51.302;6.354;2023-05-10T03:35:08;12.60;99.90
27376;DHT22;14844;51.302;6.354;2023-05-10T03:37:33;12.70;99.90
27376;DHT22;14844;51.302;6.354;2023-05-10T03:39:59;12.70;99.90
27376;DHT22;14844;51.302;6.354;2023-05-10T03:42:24;12.70;99.90
27376;DHT22;14844;51.302;6.354;2023-05-10T03:44:50;12.70;99.90
27376;DHT22;14844;51.302;6.354;2023-05-10T03:47:15;12.70;99.90
27376;DHT22;14844;51.302;6.354;2023-05-10T03:49:41;12.70;99.90
27376;DHT22;14844;51.302;6.354;2023-05-10T03:52:06;12.70;99.90
27376;DHT22;14844;51.302;6.354;2023-05-10T03:54:32;12.70;99.90
27376;DHT22;14844;51.302;6.354;2023-05-10T03:56:57;12.80;99.90
27376;DHT22;14844;51.302;6.354;2023-05-10T03:59:23;12.70;99.90
27376;DHT22;14844;51.302;6.354;2023-05-10T04:01:48;12.80;99.90
27376;DHT22;14844;51.302;6.354;2023-05-10T04:04:14;12.80;99.90
27376;DHT22;14844;51.302;6.354;2023-05-10T04:06:39;12.80;99.90
27376;DHT22;14844;51.302;6.354;2023-05-10T04:09:04;12.80;99.90
27376;DHT22;14844;51.302;6.354;2023-05-10T04:11:30;12.80;99.90
27376;DHT22;14844;51.302;6.354;2023-05-10T04:13:56;12.80;99.90
27376;DHT22;14844;51.302;6.354;2023-05-10T04:16:21;12.80;99.90
27376;DHT22;14844;51.302;6.354;2023-05-10T04:18:47;12.80;99.90
27376;DHT22;14844;51.302;6.354;2023-05-10T04:21:13;12.80;99.90
27376;DHT22;14844;51.302;6.354;2023-05-10T04:23:39;12.80;99.90
27376;DHT22;14844;51.302;6.354;2023-05-10T04:26:04;12.80;99.90
27376;DHT22;14844;51.302;6.354;2023-05-10T04:28:30;12.90;99.90
27376;DHT22;14844;51.302;6.354;2023-05-10T04:31:05;12.90;99.90
27376;DHT22;14844;51.302;6.354;2023-05-10T04:33:31;12.90;99.90
27376;DHT22;14844;51.302;6.354;2023-05-10T04:35:57;12.90;99.90
27376;DHT22;14844;51.302;6.354;2023-05-10T04:38:22;12.90;99.90
27376;DHT22;14844;51.302;6.354;2023-05-10T04:40:48;12.90;99.90
27376;DHT22;14844;51.302;6.354;2023-05-10T04:43:13;12.90;99.90
27376;DHT22;14844;51.302;6.354;2023-05-10T04:45:39;12.90;99.90
27376;DHT22;14844;51.302;6.354;2023-05-10T04:48:04;12.90;99.90
27376;DHT22;14844;51.302;6.354;2023-05-10T04:50:30;12.90;99.90
27376;DHT22;14844;51.302;6.354;2023-05-10T04:52:56;12.90;99.90
27376;DHT22;14844;51.302;6.354;2023-05-10T04:55:22;12.80;99.90
27376;DHT22;14844;51.302;6.354;2023-05-10T04:57:47;12.80;99.90
27376;DHT22;14844;51.302;6.354;2023-05-10T05:00:13;12.80;99.90
27376;DHT22;14844;51.302;6.354;2023-05-10T05:02:41;12.80;99.90
27376;DHT22;14844;51.302;6.354;2023-05-10T05:05:07;12.90;99.90
27376;DHT22;14844;51.302;6.354;2023-05-10T05:07:32;12.90;99.90
27376;DHT22;14844;51.302;6.354;2023-05-10T05:09:58;12.80;99.90
27376;DHT22;14844;51.302;6.354;2023-05-10T05:12:23;12.90;99.90
27376;DHT22;14844;51.302;6.354;2023-05-10T05:14:49;12.90;99.90
27376;DHT22;14844;51.302;6.354;2023-05-10T05:17:14;12.80;99.90
27376;DHT22;14844;51.302;6.354;2023-05-10T05:19:40;12.80;99.90
27376;DHT22;14844;51.302;6.354;2023-05-10T05:22:06;12.80;99.90
27376;DHT22;14844;51.302;6.354;2023-05-10T05:24:34;12.80;99.90
27376;DHT22;14844;51.302;6.354;2023-05-10T05:27:00;12.80;99.90
27376;DHT22;14844;51.302;6.354;2023-05-10T05:29:26;12.80;99.90
27376;DHT22;14844;51.302;6.354;2023-05-10T05:31:51;12.80;99.90
27376;DHT22;14844;51.302;6.354;2023-05-10T05:34:16;12.80;99.90
27376;DHT22;14844;51.302;6.354;2023-05-10T05:36:42;12.80;99.90
27376;DHT22;14844;51.302;6.354;2023-05-10T05:39:07;12.70;99.90
27376;DHT22;14844;51.302;6.354;2023-05-10T05:41:33;12.70;99.90
27376;DHT22;14844;51.302;6.354;2023-05-10T05:43:58;12.70;99.90
27376;DHT22;14844;51.302;6.354;2023-05-10T05:46:24;12.80;99.90
27376;DHT22;14844;51.302;6.354;2023-05-10T05:48:49;12.80;99.90
27376;DHT22;14844;51.302;6.354;2023-05-10T05:51:14;12.80;99.90
27376;DHT22;14844;51.302;6.354;2023-05-10T05:53:40;12.80;99.90
27376;DHT22;14844;51.302;6.354;2023-05-10T05:56:05;12.90;99.90
27376;DHT22;14844;51.302;6.354;2023-05-10T05:58:31;12.90;99.90
27376;DHT22;14844;51.302;6.354;2023-05-10T06:00:56;12.90;99.90
27376;DHT22;14844;51.302;6.354;2023-05-10T06:03:22;12.90;99.90
27376;DHT22;14844;51.302;6.354;2023-05-10T06:05:48;12.90;99.90
27376;DHT22;14844;51.302;6.354;2023-05-10T06:08:13;13.00;99.90
27376;DHT22;14844;51.302;6.354;2023-05-10T06:10:39;13.10;99.90
27376;DHT22;14844;51.302;6.354;2023-05-10T06:13:04;13.00;99.90
27376;DHT22;14844;51.302;6.354;2023-05-10T06:15:30;13.00;99.90
27376;DHT22;14844;51.302;6.354;2023-05-10T06:17:55;13.10;99.90
27376;DHT22;14844;51.302;6.354;2023-05-10T06:20:21;13.10;99.90
27376;DHT22;14844;51.302;6.354;2023-05-10T06:22:46;13.10;99.90
27376;DHT22;14844;51.302;6.354;2023-05-10T06:25:11;13.20;99.90
27376;DHT22;14844;51.302;6.354;2023-05-10T06:27:37;13.20;99.90
27376;DHT22;14844;51.302;6.354;2023-05-10T06:30:03;13.20;99.90
27376;DHT22;14844;51.302;6.354;2023-05-10T06:32:29;13.10;99.90
27376;DHT22;14844;51.302;6.354;2023-05-10T06:34:54;13.10;99.90
27376;DHT22;14844;51.302;6.354;2023-05-10T06:37:20;13.10;99.90
27376;DHT22;14844;51.302;6.354;2023-05-10T06:39:45;13.10;99.90
27376;DHT22;14844;51.302;6.354;2023-05-10T06:42:11;13.10;99.90
27376;DHT22;14844;51.302;6.354;2023-05-10T06:44:36;13.20;99.90
27376;DHT22;14844;51.302;6.354;2023-05-10T06:47:02;13.40;99.90
27376;DHT22;14844;51.302;6.354;2023-05-10T06:49:27;13.50;99.90
27376;DHT22;14844;51.302;6.354;2023-05-10T06:51:53;13.60;99.90
27376;DHT22;14844;51.302;6.354;2023-05-10T06:54:18;13.50;99.90
27376;DHT22;14844;51.302;6.354;2023-05-10T06:56:44;13.50;99.90
27376;DHT22;14844;51.302;6.354;2023-05-10T06:59:09;13.50;99.90
27376;DHT22;14844;51.302;6.354;2023-05-10T07:01:35;13.60;99.90
27376;DHT22;14844;51.302;6.354;2023-05-10T07:04:00;13.60;99.90
27376;DHT22;14844;51.302;6.354;2023-05-10T07:06:26;13.70;99.90
27376;DHT22;14844;51.302;6.354;2023-05-10T07:08:52;13.70;99.90
27376;DHT22;14844;51.302;6.354;2023-05-10T07:11:18;13.70;99.90
27376;DHT22;14844;51.302;6.354;2023-05-10T07:13:43;13.80;99.90
27376;DHT22;14844;51.302;6.354;2023-05-10T07:16:11;13.70;99.90
27376;DHT22;14844;51.302;6.354;2023-05-10T07:18:36;13.80;99.90
27376;DHT22;14844;51.302;6.354;2023-05-10T07:21:02;13.80;99.90
27376;DHT22;14844;51.302;6.354;2023-05-10T07:23:28;13.60;99.90
27376;DHT22;14844;51.302;6.354;2023-05-10T07:25:53;13.70;99.90
27376;DHT22;14844;51.302;6.354;2023-05-10T07:28:19;13.60;99.90
27376;DHT22;14844;51.302;6.354;2023-05-10T07:30:44;13.50;99.90
27376;DHT22;14844;51.302;6.354;2023-05-10T07:33:13;13.50;99.90
27376;DHT22;14844;51.302;6.354;2023-05-10T07:35:39;13.60;99.90
27376;DHT22;14844;51.302;6.354;2023-05-10T07:38:05;13.70;99.90
27376;DHT22;14844;51.302;6.354;2023-05-10T07:40:30;13.90;99.90
27376;DHT22;14844;51.302;6.354;2023-05-10T07:42:56;14.00;99.90
27376;DHT22;14844;51.302;6.354;2023-05-10T07:45:22;14.00;99.90
27376;DHT22;14844;51.302;6.354;2023-05-10T07:47:47;13.90;99.90
27376;DHT22;14844;51.302;6.354;2023-05-10T07:50:13;14.00;99.90
27376;DHT22;14844;51.302;6.354;2023-05-10T07:52:39;14.20;99.90
27376;DHT22;14844;51.302;6.354;2023-05-10T07:55:04;14.40;99.90
27376;DHT22;14844;51.302;6.354;2023-05-10T07:57:30;14.50;99.90
27376;DHT22;14844;51.302;6.354;2023-05-10T07:59:56;14.70;99.90
27376;DHT22;14844;51.302;6.354;2023-05-10T08:02:21;14.90;99.90
27376;DHT22;14844;51.302;6.354;2023-05-10T08:04:47;15.00;99.90
27376;DHT22;14844;51.302;6.354;2023-05-10T08:07:16;15.10;99.90
27376;DHT22;14844;51.302;6.354;2023-05-10T08:09:41;15.10;99.90
27376;DHT22;14844;51.302;6.354;2023-05-10T08:12:06;15.10;99.90
27376;DHT22;14844;51.302;6.354;2023-05-10T08:14:32;15.10;99.90
27376;DHT22;14844;51.302;6.354;2023-05-10T08:16:57;15.20;99.90
27376;DHT22;14844;51.302;6.354;2023-05-10T08:19:23;15.20;99.90
27376;DHT22;14844;51.302;6.354;2023-05-10T08:21:49;15.10;99.90
27376;DHT22;14844;51.302;6.354;2023-05-10T08:24:14;15.10;99.90
27376;DHT22;14844;51.302;6.354;2023-05-10T08:26:40;15.20;99.90
27376;DHT22;14844;51.302;6.354;2023-05-10T08:29:05;15.10;99.90
27376;DHT22;14844;51.302;6.354;2023-05-10T08:31:31;15.20;99.90
27376;DHT22;14844;51.302;6.354;2023-05-10T08:33:56;15.00;99.90
27376;DHT22;14844;51.302;6.354;2023-05-10T08:36:22;15.00;99.90
27376;DHT22;14844;51.302;6.354;2023-05-10T08:38:50;14.80;99.90
27376;DHT22;14844;51.302;6.354;2023-05-10T08:41:15;14.80;99.90
27376;DHT22;14844;51.302;6.354;2023-05-10T08:43:41;14.70;99.90
27376;DHT22;14844;51.302;6.354;2023-05-10T08:46:11;14.70;99.90
27376;DHT22;14844;51.302;6.354;2023-05-10T08:48:37;14.60;99.90
27376;DHT22;14844;51.302;6.354;2023-05-10T08:51:04;14.50;99.90
27376;DHT22;14844;51.302;6.354;2023-05-10T08:53:29;14.50;99.90
27376;DHT22;14844;51.302;6.354;2023-05-10T08:55:57;14.60;99.90
27376;DHT22;14844;51.302;6.354;2023-05-10T08:58:22;14.70;99.90
27376;DHT22;14844;51.302;6.354;2023-05-10T09:00:48;14.70;99.90
27376;DHT22;14844;51.302;6.354;2023-05-10T09:03:14;14.60;99.90
27376;DHT22;14844;51.302;6.354;2023-05-10T09:05:40;14.50;99.90
27376;DHT22;14844;51.302;6.354;2023-05-10T09:08:06;14.30;99.90
27376;DHT22;14844;51.302;6.354;2023-05-10T09:10:33;14.30;99.90
27376;DHT22;14844;51.302;6.354;2023-05-10T09:12:58;14.20;99.90
27376;DHT22;14844;51.302;6.354;2023-05-10T09:15:24;14.20;99.90
27376;DHT22;14844;51.302;6.354;2023-05-10T09:17:49;14.20;99.90
27376;DHT22;14844;51.302;6.354;2023-05-10T09:20:15;14.30;99.90
27376;DHT22;14844;51.302;6.354;2023-05-10T09:22:42;14.40;99.90
27376;DHT22;14844;51.302;6.354;2023-05-10T09:25:08;14.50;99.90
27376;DHT22;14844;51.302;6.354;2023-05-10T09:27:34;14.60;99.90
27376;DHT22;14844;51.302;6.354;2023-05-10T09:30:00;14.70;99.90
27376;DHT22;14844;51.302;6.354;2023-05-10T09:32:39;14.70;99.90
27376;DHT22;14844;51.302;6.354;2023-05-10T09:37:33;14.80;99.90
27376;DHT22;14844;51.302;6.354;2023-05-10T09:39:59;14.70;99.90
27376;DHT22;14844;51.302;6.354;2023-05-10T09:42:24;14.70;99.90
27376;DHT22;14844;51.302;6.354;2023-05-10T09:44:50;14.70;99.90
27376;DHT22;14844;51.302;6.354;2023-05-10T09:47:18;14.60;99.90
27376;DHT22;14844;51.302;6.354;2023-05-10T09:49:48;14.70;99.90
27376;DHT22;14844;51.302;6.354;2023-05-10T09:52:14;14.80;99.90
27376;DHT22;14844;51.302;6.354;2023-05-10T09:54:42;14.80;99.90
27376;DHT22;14844;51.302;6.354;2023-05-10T09:57:18;14.90;99.90
27376;DHT22;14844;51.302;6.354;2023-05-10T09:59:45;14.90;99.90
27376;DHT22;14844;51.302;6.354;2023-05-10T10:02:11;15.20;99.90
27376;DHT22;14844;51.302;6.354;2023-05-10T10:04:40;15.40;99.90
27376;DHT22;14844;51.302;6.354;2023-05-10T10:07:06;15.50;99.90
27376;DHT22;14844;51.302;6.354;2023-05-10T10:09:32;15.60;99.90
27376;DHT22;14844;51.302;6.354;2023-05-10T10:11:58;15.70;99.90
27376;DHT22;14844;51.302;6.354;2023-05-10T10:14:24;15.70;99.90
27376;DHT22;14844;51.302;6.354;2023-05-10T10:16:50;15.50;99.90
27376;DHT22;14844;51.302;6.354;2023-05-10T10:19:17;15.30;99.90
27376;DHT22;14844;51.302;6.354;2023-05-10T10:21:43;15.20;99.90
27376;DHT22;14844;51.302;6.354;2023-05-10T10:24:08;15.10;99.90
27376;DHT22;14844;51.302;6.354;2023-05-10T10:26:34;15.00;99.90
27376;DHT22;14844;51.302;6.354;2023-05-10T10:29:04;15.00;99.90
27376;DHT22;14844;51.302;6.354;2023-05-10T10:34:03;15.10;99.90
27376;DHT22;14844;51.302;6.354;2023-05-10T10:36:30;15.20;99.90
27376;DHT22;14844;51.302;6.354;2023-05-10T10:38:57;15.50;99.90
27376;DHT22;14844;51.302;6.354;2023-05-10T10:49:27;15.70;99.90
27376;DHT22;14844;51.302;6.354;2023-05-10T10:54:37;15.60;99.90
27376;DHT22;14844;51.302;6.354;2023-05-10T10:57:10;15.40;99.90
27376;DHT22;14844;51.302;6.354;2023-05-10T10:59:35;15.50;99.90
27376;DHT22;14844;51.302;6.354;2023-05-10T11:02:01;15.50;99.90
27376;DHT22;14844;51.302;6.354;2023-05-10T11:04:27;15.60;99.90
27376;DHT22;14844;51.302;6.354;2023-05-10T11:06:53;15.70;99.90
27376;DHT22;14844;51.302;6.354;2023-05-10T11:09:39;15.90;99.90
27376;DHT22;14844;51.302;6.354;2023-05-10T11:12:07;16.20;99.90
27376;DHT22;14844;51.302;6.354;2023-05-10T11:14:33;16.30;99.90
27376;DHT22;14844;51.302;6.354;2023-05-10T11:16:58;16.50;99.90
27376;DHT22;14844;51.302;6.354;2023-05-10T11:19:27;16.50;99.90
27376;DHT22;14844;51.302;6.354;2023-05-10T11:24:30;16.90;99.90
27376;DHT22;14844;51.302;6.354;2023-05-10T11:26:56;17.10;99.90
27376;DHT22;14844;51.302;6.354;2023-05-10T11:29:21;17.00;99.90
27376;DHT22;14844;51.302;6.354;2023-05-10T11:31:48;17.10;99.90
27376;DHT22;14844;51.302;6.354;2023-05-10T11:34:23;17.40;99.90
27376;DHT22;14844;51.302;6.354;2023-05-10T11:36:52;17.70;99.90
27376;DHT22;14844;51.302;6.354;2023-05-10T11:39:19;18.10;99.90
27376;DHT22;14844;51.302;6.354;2023-05-10T11:41:46;17.80;99.90
27376;DHT22;14844;51.302;6.354;2023-05-10T11:44:12;18.00;99.90
27376;DHT22;14844;51.302;6.354;2023-05-10T11:46:37;18.00;99.90
27376;DHT22;14844;51.302;6.354;2023-05-10T11:49:03;18.10;99.90
27376;DHT22;14844;51.302;6.354;2023-05-10T11:51:35;18.10;99.90
27376;DHT22;14844;51.302;6.354;2023-05-10T11:54:04;18.30;99.90
27376;DHT22;14844;51.302;6.354;2023-05-10T11:56:31;18.30;99.90
27376;DHT22;14844;51.302;6.354;2023-05-10T11:58:57;18.60;99.90
27376;DHT22;14844;51.302;6.354;2023-05-10T12:01:26;18.70;99.90
27376;DHT22;14844;51.302;6.354;2023-05-10T12:03:52;18.40;99.90
27376;DHT22;14844;51.302;6.354;2023-05-10T12:06:18;18.40;99.90
27376;DHT22;14844;51.302;6.354;2023-05-10T12:08:45;18.10;99.90
27376;DHT22;14844;51.302;6.354;2023-05-10T12:11:11;18.00;99.90
27376;DHT22;14844;51.302;6.354;2023-05-10T12:13:38;18.20;99.90
27376;DHT22;14844;51.302;6.354;2023-05-10T12:16:14;18.40;99.90
27376;DHT22;14844;51.302;6.354;2023-05-10T12:18:40;18.40;99.90
27376;DHT22;14844;51.302;6.354;2023-05-10T12:21:09;18.40;99.90
27376;DHT22;14844;51.302;6.354;2023-05-10T12:23:35;18.70;99.90
27376;DHT22;14844;51.302;6.354;2023-05-10T12:26:02;19.00;99.90
27376;DHT22;14844;51.302;6.354;2023-05-10T12:28:29;19.60;99.90
27376;DHT22;14844;51.302;6.354;2023-05-10T12:30:55;19.70;99.90
27376;DHT22;14844;51.302;6.354;2023-05-10T12:33:22;20.00;99.90
27376;DHT22;14844;51.302;6.354;2023-05-10T12:35:48;20.20;99.90
27376;DHT22;14844;51.302;6.354;2023-05-10T12:38:34;20.90;99.90
27376;DHT22;14844;51.302;6.354;2023-05-10T12:41:00;20.90;99.90
27376;DHT22;14844;51.302;6.354;2023-05-10T12:43:26;20.40;99.90
27376;DHT22;14844;51.302;6.354;2023-05-10T12:45:52;20.90;99.90
27376;DHT22;14844;51.302;6.354;2023-05-10T12:48:17;20.80;99.90
27376;DHT22;14844;51.302;6.354;2023-05-10T12:50:43;20.70;99.90
27376;DHT22;14844;51.302;6.354;2023-05-10T12:53:08;20.50;99.90
27376;DHT22;14844;51.302;6.354;2023-05-10T12:55:34;20.90;99.90
27376;DHT22;14844;51.302;6.354;2023-05-10T12:57:59;21.20;99.90
27376;DHT22;14844;51.302;6.354;2023-05-10T13:00:25;21.00;99.90
27376;DHT22;14844;51.302;6.354;2023-05-10T13:02:50;20.90;99.90
27376;DHT22;14844;51.302;6.354;2023-05-10T13:05:16;21.30;99.90
27376;DHT22;14844;51.302;6.354;2023-05-10T13:07:41;21.10;99.90
27376;DHT22;14844;51.302;6.354;2023-05-10T13:10:09;20.80;99.90
27376;DHT22;14844;51.302;6.354;2023-05-10T13:12:34;20.60;99.90
27376;DHT22;14844;51.302;6.354;2023-05-10T13:15:00;20.90;99.90
27376;DHT22;14844;51.302;6.354;2023-05-10T13:17:26;20.70;99.90
27376;DHT22;14844;51.302;6.354;2023-05-10T13:19:51;20.90;99.90
27376;DHT22;14844;51.302;6.354;2023-05-10T13:22:17;21.10;99.90
27376;DHT22;14844;51.302;6.354;2023-05-10T13:24:42;21.00;99.90
27376;DHT22;14844;51.302;6.354;2023-05-10T13:27:08;20.90;99.90
27376;DHT22;14844;51.302;6.354;2023-05-10T13:29:41;21.10;99.90
27376;DHT22;14844;51.302;6.354;2023-05-10T13:32:06;20.80;99.90
27376;DHT22;14844;51.302;6.354;2023-05-10T13:34:32;20.80;99.90
27376;DHT22;14844;51.302;6.354;2023-05-10T13:36:57;20.70;99.90
27376;DHT22;14844;51.302;6.354;2023-05-10T13:39:23;20.50;99.90
27376;DHT22;14844;51.302;6.354;2023-05-10T13:41:51;20.10;99.90
27376;DHT22;14844;51.302;6.354;2023-05-10T13:44:20;20.00;99.90
27376;DHT22;14844;51.302;6.354;2023-05-10T13:46:52;19.90;99.90
27376;DHT22;14844;51.302;6.354;2023-05-10T13:49:29;19.60;99.90
27376;DHT22;14844;51.302;6.354;2023-05-10T13:52:09;19.30;99.90
27376;DHT22;14844;51.302;6.354;2023-05-10T13:54:40;19.20;99.90
27376;DHT22;14844;51.302;6.354;2023-05-10T13:57:06;19.20;99.90
27376;DHT22;14844;51.302;6.354;2023-05-10T13:59:32;19.40;99.90
27376;DHT22;14844;51.302;6.354;2023-05-10T14:01:58;19.80;99.90
27376;DHT22;14844;51.302;6.354;2023-05-10T14:04:24;20.30;99.90
27376;DHT22;14844;51.302;6.354;2023-05-10T14:06:49;20.20;99.90
27376;DHT22;14844;51.302;6.354;2023-05-10T14:09:15;20.20;99.90
27376;DHT22;14844;51.302;6.354;2023-05-10T14:11:41;20.10;99.90
27376;DHT22;14844;51.302;6.354;2023-05-10T14:14:11;20.30;99.90
27376;DHT22;14844;51.302;6.354;2023-05-10T14:16:37;20.20;99.90
27376;DHT22;14844;51.302;6.354;2023-05-10T14:19:03;20.30;99.90
27376;DHT22;14844;51.302;6.354;2023-05-10T14:21:29;20.20;99.90
27376;DHT22;14844;51.302;6.354;2023-05-10T14:23:58;20.20;99.90
27376;DHT22;14844;51.302;6.354;2023-05-10T14:26:26;20.10;99.90
27376;DHT22;14844;51.302;6.354;2023-05-10T14:28:55;20.10;99.90
27376;DHT22;14844;51.302;6.354;2023-05-10T14:31:27;20.10;99.90
27376;DHT22;14844;51.302;6.354;2023-05-10T14:33:52;20.10;99.90
27376;DHT22;14844;51.302;6.354;2023-05-10T14:36:26;20.10;99.90
27376;DHT22;14844;51.302;6.354;2023-05-10T14:38:56;20.10;99.90
27376;DHT22;14844;51.302;6.354;2023-05-10T14:44:10;20.70;99.90
27376;DHT22;14844;51.302;6.354;2023-05-10T14:46:39;20.90;99.90
27376;DHT22;14844;51.302;6.354;2023-05-10T14:49:16;20.60;99.90
27376;DHT22;14844;51.302;6.354;2023-05-10T14:51:44;20.40;99.90
27376;DHT22;14844;51.302;6.354;2023-05-10T14:54:10;19.60;99.90
27376;DHT22;14844;51.302;6.354;2023-05-10T14:56:36;18.80;99.90
27376;DHT22;14844;51.302;6.354;2023-05-10T14:59:02;18.20;99.90
27376;DHT22;14844;51.302;6.354;2023-05-10T15:01:29;17.60;99.90
27376;DHT22;14844;51.302;6.354;2023-05-10T15:03:54;17.30;99.90
27376;DHT22;14844;51.302;6.354;2023-05-10T15:06:29;17.10;99.90
27376;DHT22;14844;51.302;6.354;2023-05-10T15:09:01;16.90;99.90
27376;DHT22;14844;51.302;6.354;2023-05-10T15:11:29;16.60;99.90
27376;DHT22;14844;51.302;6.354;2023-05-10T15:13:55;16.50;99.90
27376;DHT22;14844;51.302;6.354;2023-05-10T15:16:20;16.30;99.90
27376;DHT22;14844;51.302;6.354;2023-05-10T15:18:48;16.10;99.90
27376;DHT22;14844;51.302;6.354;2023-05-10T15:21:14;16.10;99.90
27376;DHT22;14844;51.302;6.354;2023-05-10T15:23:42;16.00;99.90
27376;DHT22;14844;51.302;6.354;2023-05-10T15:26:07;15.90;99.90
27376;DHT22;14844;51.302;6.354;2023-05-10T15:28:33;15.90;99.90
27376;DHT22;14844;51.302;6.354;2023-05-10T15:30:59;15.80;99.90
27376;DHT22;14844;51.302;6.354;2023-05-10T15:33:25;15.70;99.90
27376;DHT22;14844;51.302;6.354;2023-05-10T15:35:52;15.70;99.90
27376;DHT22;14844;51.302;6.354;2023-05-10T15:38:23;15.50;99.90
27376;DHT22;14844;51.302;6.354;2023-05-10T15:40:48;15.30;99.90
27376;DHT22;14844;51.302;6.354;2023-05-10T15:43:16;15.20;99.90
27376;DHT22;14844;51.302;6.354;2023-05-10T15:45:42;15.00;99.90
27376;DHT22;14844;51.302;6.354;2023-05-10T15:48:07;14.60;99.90
27376;DHT22;14844;51.302;6.354;2023-05-10T15:50:33;14.20;99.90
27376;DHT22;14844;51.302;6.354;2023-05-10T15:52:58;13.80;99.90
27376;DHT22;14844;51.302;6.354;2023-05-10T15:55:24;13.60;99.90
27376;DHT22;14844;51.302;6.354;2023-05-10T15:57:50;13.30;99.90
27376;DHT22;14844;51.302;6.354;2023-05-10T16:00:16;13.30;99.90
27376;DHT22;14844;51.302;6.354;2023-05-10T16:02:42;13.20;99.90
27376;DHT22;14844;51.302;6.354;2023-05-10T16:05:07;13.20;99.90
27376;DHT22;14844;51.302;6.354;2023-05-10T16:07:33;13.20;99.90
27376;DHT22;14844;51.302;6.354;2023-05-10T16:09:59;13.10;99.90